createdAt,value
2019-05-03T00:01:56.916Z,100392.76
2019-05-03T00:05:27.190Z,100388.94
2019-05-03T00:08:33.240Z,100385.89
2019-05-03T00:11:37.586Z,100400.88
2019-05-03T00:14:43.538Z,100396.52
2019-05-03T00:17:47.842Z,100395.66
2019-05-03T00:20:52.719Z,100389.45
2019-05-03T00:23:57.126Z,100389.84
2019-05-03T00:27:01.949Z,100389.06
2019-05-03T00:30:06.536Z,100391.34
2019-05-03T00:33:11.755Z,100394.86
2019-05-03T00:36:27.830Z,100397.96
2019-05-03T00:39:41.740Z,100391.81
2019-05-03T00:42:45.836Z,100394.86
2019-05-03T00:45:51.702Z,100398.38
2019-05-03T00:48:56.045Z,100401.02
2019-05-03T00:52:02.282Z,100397.06
2019-05-03T00:55:16.169Z,100397.98
2019-05-03T00:58:12.677Z,100396.72
2019-05-03T01:01:17.377Z,100395.41
2019-05-03T01:04:22.371Z,100394.11
2019-05-03T01:07:26.727Z,100396.83
2019-05-03T01:10:32.947Z,100394.22
2019-05-03T01:13:37.029Z,100396.00
2019-05-03T01:16:42.695Z,100401.73
2019-05-03T01:19:47.112Z,100397.36
2019-05-03T01:22:51.922Z,100401.27
2019-05-03T01:25:56.248Z,100393.36
2019-05-03T01:29:02.603Z,100399.52
2019-05-03T01:32:06.566Z,100395.12
2019-05-03T01:35:12.325Z,100397.78
2019-05-03T01:38:19.293Z,100401.72
2019-05-03T01:41:22.783Z,100396.47
2019-05-03T01:44:27.048Z,100401.73
2019-05-03T01:47:39.288Z,100401.27
2019-05-03T01:51:09.269Z,100402.59
2019-05-03T01:54:13.547Z,100407.86
2019-05-03T01:57:17.852Z,100405.23
2019-05-03T02:00:26.051Z,100408.32
2019-05-03T02:03:42.207Z,100418.94
2019-05-03T02:06:46.531Z,100410.63
2019-05-03T02:09:51.953Z,100420.31
2019-05-03T02:12:56.301Z,100416.80
2019-05-03T02:16:02.263Z,100411.16
2019-05-03T02:19:06.752Z,100417.77
2019-05-03T02:22:12.075Z,100414.73
2019-05-03T02:25:16.425Z,100415.66
2019-05-03T02:28:22.061Z,100422.63
2019-05-03T02:31:26.520Z,100424.89
2019-05-03T02:34:32.771Z,100429.33
2019-05-03T02:37:37.686Z,100427.56
2019-05-03T02:40:42.978Z,100420.97
2019-05-03T02:43:49.921Z,100430.14
2019-05-03T02:47:05.541Z,100427.09
2019-05-03T02:50:16.444Z,100435.89
2019-05-03T02:53:19.555Z,100433.23
2019-05-03T02:56:26.035Z,100442.91
2019-05-03T02:59:29.955Z,100434.55
2019-05-03T03:02:36.558Z,100442.94
2019-05-03T03:05:40.958Z,100444.27
2019-05-03T03:08:46.252Z,100440.73
2019-05-03T03:11:55.758Z,100441.66
2019-05-03T03:15:01.658Z,100438.62
2019-05-03T03:18:08.859Z,100449.18
2019-05-03T03:21:17.124Z,100441.73
2019-05-03T03:24:25.852Z,100443.95
2019-05-03T03:27:32.135Z,100448.75
2019-05-03T03:31:02.527Z,100449.22
2019-05-03T03:34:09.638Z,100452.33
2019-05-03T03:37:15.553Z,100456.25
2019-05-03T03:40:21.188Z,100455.85
2019-05-03T03:43:27.586Z,100462.44
2019-05-03T03:46:35.831Z,100465.06
2019-05-03T03:49:46.071Z,100465.91
2019-05-03T03:52:50.993Z,100470.75
2019-05-03T03:55:57.200Z,100471.60
2019-05-03T03:59:01.505Z,100475.09
2019-05-03T04:02:06.078Z,100477.30
2019-05-03T04:05:10.599Z,100475.51
2019-05-03T04:08:16.132Z,100477.27
2019-05-03T04:11:20.832Z,100479.86
2019-05-03T04:14:36.028Z,100484.73
2019-05-03T04:17:47.279Z,100487.35
2019-05-03T04:20:51.564Z,100490.84
2019-05-03T04:23:56.363Z,100489.08
2019-05-03T04:27:18.736Z,100501.33
2019-05-03T04:30:16.198Z,100499.61
2019-05-03T04:33:19.233Z,100503.08
2019-05-03T04:36:25.993Z,100508.33
2019-05-03T04:39:29.573Z,100514.91
2019-05-03T04:42:35.654Z,100515.72
2019-05-03T04:45:39.894Z,100515.31
2019-05-03T04:48:44.932Z,100514.39
2019-05-03T04:51:49.255Z,100516.58
2019-05-03T04:54:56.522Z,100520.92
2019-05-03T04:58:01.116Z,100517.36
2019-05-03T05:01:06.435Z,100522.61
2019-05-03T05:04:10.710Z,100524.31
2019-05-03T05:07:15.664Z,100524.70
2019-05-03T05:10:20.038Z,100533.91
2019-05-03T05:13:24.994Z,100533.84
2019-05-03T05:16:29.401Z,100534.64
2019-05-03T05:19:55.682Z,100529.28
2019-05-03T05:23:00.144Z,100534.42
2019-05-03T05:26:15.776Z,100534.80
2019-05-03T05:29:22.422Z,100540.86
2019-05-03T05:32:26.710Z,100538.61
2019-05-03T05:35:30.988Z,100534.16
2019-05-03T05:38:35.265Z,100531.04
2019-05-03T05:41:39.583Z,100541.11
2019-05-03T05:44:45.424Z,100544.57
2019-05-03T05:48:02.101Z,100546.30
2019-05-03T05:51:06.390Z,100545.79
2019-05-03T05:54:10.672Z,100551.38
2019-05-03T05:57:39.804Z,100554.93
2019-05-03T06:00:56.320Z,100550.41
2019-05-03T06:04:00.589Z,100561.23
2019-05-03T06:07:29.765Z,100565.93
2019-05-03T06:10:41.835Z,100570.75
2019-05-03T06:14:24.510Z,100565.84
2019-05-03T06:17:55.356Z,100557.33
2019-05-03T06:21:06.223Z,100563.78
2019-05-03T06:24:16.425Z,100565.22
2019-05-03T06:27:27.165Z,100561.39
2019-05-03T06:30:40.912Z,100567.59
2019-05-03T06:33:45.213Z,100569.94
2019-05-03T06:36:51.465Z,100570.95
2019-05-03T06:39:55.895Z,100565.13
2019-05-03T06:43:08.384Z,100561.72
2019-05-03T06:46:06.161Z,100557.28
2019-05-03T06:49:10.456Z,100558.16
2019-05-03T06:52:14.896Z,100572.64
2019-05-03T06:55:19.169Z,100556.69
2019-05-03T06:58:32.873Z,100567.27
2019-05-03T07:01:35.662Z,100556.69
2019-05-03T07:04:44.957Z,100557.55
2019-05-03T07:07:55.724Z,100561.22
2019-05-03T07:11:01.135Z,100561.67
2019-05-03T07:14:05.460Z,100576.55
2019-05-03T07:17:09.705Z,100568.75
2019-05-03T07:20:14.801Z,100575.58
2019-05-03T07:23:19.171Z,100573.63
2019-05-03T07:26:25.235Z,100577.08
2019-05-03T07:29:29.444Z,100572.91
2019-05-03T07:32:34.770Z,100578.19
2019-05-03T07:35:39.081Z,100572.73
2019-05-03T07:38:45.237Z,100572.17
2019-05-03T07:41:49.359Z,100567.28
2019-05-03T07:44:55.807Z,100562.28
2019-05-03T07:47:59.642Z,100558.94
2019-05-03T07:51:05.476Z,100554.31
2019-05-03T07:54:09.971Z,100558.75
2019-05-03T07:57:42.140Z,100566.79
2019-05-03T08:00:46.425Z,100580.04
2019-05-03T08:03:50.702Z,100589.73
2019-05-03T08:06:55.079Z,100594.66
2019-05-03T08:09:59.313Z,100591.12
2019-05-03T08:13:04.629Z,100605.00
2019-05-03T08:16:09.058Z,100598.31
2019-05-03T08:19:15.246Z,100594.05
2019-05-03T08:22:19.323Z,100585.73
2019-05-03T08:25:24.979Z,100594.70
2019-05-03T08:28:29.311Z,100588.90
2019-05-03T08:31:45.426Z,100592.91
2019-05-03T08:35:10.221Z,100591.11
2019-05-03T08:38:15.283Z,100594.40
2019-05-03T08:41:24.733Z,100582.55
2019-05-03T08:44:29.086Z,100584.52
2019-05-03T08:47:34.462Z,100579.71
2019-05-03T08:50:38.869Z,100570.19
2019-05-03T08:53:45.655Z,100562.81
2019-05-03T08:56:49.142Z,100563.59
2019-05-03T08:59:54.956Z,100557.88
2019-05-03T09:02:59.377Z,100569.31
2019-05-03T09:06:04.630Z,100570.00
2019-05-03T09:09:16.675Z,100575.17
2019-05-03T09:12:20.929Z,100560.02
2019-05-03T09:15:25.495Z,100561.92
2019-05-03T09:18:29.780Z,100554.56
2019-05-03T09:21:34.744Z,100585.38
2019-05-03T09:24:39.090Z,100591.97
2019-05-03T09:27:44.677Z,100585.92
2019-05-03T09:30:49.057Z,100576.33
2019-05-03T09:33:54.854Z,100571.67
2019-05-03T09:36:59.276Z,100574.17
2019-05-03T09:40:04.517Z,100567.13
2019-05-03T09:43:08.785Z,100562.02
2019-05-03T09:46:14.606Z,100555.61
2019-05-03T09:49:19.038Z,100542.19
2019-05-03T09:52:25.040Z,100547.45
2019-05-03T09:55:36.337Z,100533.66
2019-05-03T09:58:40.626Z,100525.45
2019-05-03T10:01:45.590Z,100538.13
2019-05-03T10:04:50.071Z,100530.48
2019-05-03T10:07:54.410Z,100535.64
2019-05-03T10:11:10.888Z,100519.09
2019-05-03T10:14:15.646Z,100521.34
2019-05-03T10:17:41.709Z,100538.47
2019-05-03T10:20:46.032Z,100536.58
2019-05-03T10:23:50.440Z,100529.60
2019-05-03T10:26:55.248Z,100537.73
2019-05-03T10:30:12.116Z,100545.15
2019-05-03T10:33:15.528Z,100548.33
2019-05-03T10:36:20.095Z,100555.66
2019-05-03T10:39:26.283Z,100563.86
2019-05-03T10:42:30.520Z,100558.12
2019-05-03T10:45:35.458Z,100543.59
2019-05-03T10:48:40.215Z,100566.55
2019-05-03T10:51:48.601Z,100584.09
2019-05-03T10:54:52.886Z,100596.77
2019-05-03T10:58:28.334Z,100590.84
2019-05-03T11:01:50.192Z,100586.06
2019-05-03T11:04:54.966Z,100574.89
2019-05-03T11:07:59.267Z,100558.85
2019-05-03T11:11:05.792Z,100553.00
2019-05-03T11:14:09.520Z,100550.35
2019-05-03T11:17:14.880Z,100541.70
2019-05-03T11:20:34.588Z,100532.66
2019-05-03T11:23:39.013Z,100540.73
2019-05-03T11:26:45.453Z,100538.61
2019-05-03T11:29:49.842Z,100539.80
2019-05-03T11:32:58.696Z,100532.95
2019-05-03T11:36:11.669Z,100528.58
2019-05-03T11:39:15.951Z,100529.11
2019-05-03T11:42:20.253Z,100559.98
2019-05-03T11:45:24.692Z,100575.18
2019-05-03T11:48:28.939Z,100577.62
2019-05-03T11:51:35.276Z,100568.00
2019-05-03T11:54:39.213Z,100564.84
2019-05-03T11:57:45.004Z,100551.64
2019-05-03T12:01:08.633Z,100557.00
2019-05-03T12:04:05.358Z,100546.47
2019-05-03T12:07:09.627Z,100545.50
2019-05-03T12:10:29.686Z,100543.78
2019-05-03T12:13:29.782Z,100534.24
2019-05-03T12:17:08.887Z,100537.88
2019-05-03T12:19:41.253Z,100535.50
2019-05-03T12:22:47.316Z,100544.54
2019-05-03T12:25:52.381Z,100536.03
2019-05-03T12:28:57.059Z,100531.70
2019-05-03T12:32:01.360Z,100530.14
2019-05-03T12:35:06.175Z,100518.34
2019-05-03T12:38:10.490Z,100505.30
2019-05-03T12:41:15.119Z,100499.38
2019-05-03T12:44:19.430Z,100506.86
2019-05-03T12:47:25.193Z,100508.14
2019-05-03T12:50:29.562Z,100507.55
2019-05-03T12:53:35.341Z,100506.59
2019-05-03T12:56:39.647Z,100506.05
2019-05-03T12:59:56.938Z,100508.80
2019-05-03T13:03:10.924Z,100490.63
2019-05-03T13:06:15.206Z,100485.58
2019-05-03T13:09:19.496Z,100488.58
2019-05-03T13:12:25.416Z,100505.93
2019-05-03T13:15:29.680Z,100498.39
2019-05-03T13:18:35.104Z,100505.89
2019-05-03T13:21:39.775Z,100499.36
2019-05-03T13:24:45.197Z,100492.30
2019-05-03T13:27:49.620Z,100487.71
2019-05-03T13:30:54.565Z,100471.41
2019-05-03T13:33:58.916Z,100470.81
2019-05-03T13:37:03.244Z,100462.81
2019-05-03T13:40:07.935Z,100458.28
2019-05-03T13:43:12.238Z,100454.36
2019-05-03T13:46:16.533Z,100446.95
2019-05-03T13:49:20.808Z,100452.45
2019-05-03T13:52:25.145Z,100442.11
2019-05-03T13:55:29.446Z,100439.23
2019-05-03T13:58:35.729Z,100443.42
2019-05-03T14:01:39.748Z,100440.49
2019-05-03T14:04:52.332Z,100444.06
2019-05-03T14:07:50.024Z,100422.72
2019-05-03T14:10:55.665Z,100427.30
2019-05-03T14:13:59.941Z,100419.11
2019-05-03T14:17:05.261Z,100424.31
2019-05-03T14:20:18.379Z,100417.48
2019-05-03T14:23:25.298Z,100410.09
2019-05-03T14:26:29.200Z,100409.23
2019-05-03T14:29:36.726Z,100407.16
2019-05-03T14:32:47.036Z,100431.34
2019-05-03T14:35:51.382Z,100439.80
2019-05-03T14:38:55.915Z,100437.39
2019-05-03T14:42:02.063Z,100431.78
2019-05-03T14:45:06.771Z,100428.59
2019-05-03T14:48:11.383Z,100422.08
2019-05-03T14:51:15.977Z,100410.54
2019-05-03T14:54:24.936Z,100404.48
2019-05-03T14:57:44.467Z,100391.84
2019-05-03T15:01:01.442Z,100393.66
2019-05-03T15:04:06.010Z,100390.63
2019-05-03T15:07:10.853Z,100384.22
2019-05-03T15:10:15.307Z,100380.41
2019-05-03T15:13:19.831Z,100384.34
2019-05-03T15:16:25.413Z,100375.45
2019-05-03T15:19:29.881Z,100375.19
2019-05-03T15:22:34.705Z,100388.63
2019-05-03T15:25:45.246Z,100399.39
2019-05-03T15:28:49.844Z,100396.27
2019-05-03T15:31:55.254Z,100398.81
2019-05-03T15:34:59.827Z,100413.25
2019-05-03T15:38:05.356Z,100415.66
2019-05-03T15:41:14.702Z,100399.92
2019-05-03T15:44:44.996Z,100389.77
2019-05-03T15:48:15.607Z,100384.34
2019-05-03T15:51:20.984Z,100368.39
2019-05-03T15:54:25.999Z,100368.43
2019-05-03T15:57:31.008Z,100365.55
2019-05-03T16:00:35.803Z,100360.78
2019-05-03T16:03:40.108Z,100357.17
2019-05-03T16:06:44.871Z,100368.66
2019-05-03T16:09:52.389Z,100360.66
2019-05-03T16:12:57.347Z,100354.56
2019-05-03T16:16:04.379Z,100360.77
2019-05-03T16:19:11.835Z,100368.44
2019-05-03T16:22:16.385Z,100394.45
2019-05-03T16:25:21.116Z,100406.11
2019-05-03T16:28:50.831Z,100394.55
2019-05-03T16:31:55.218Z,100349.48
2019-05-03T16:34:59.747Z,100362.00
2019-05-03T16:38:06.163Z,100365.56
2019-05-03T16:41:10.936Z,100360.14
2019-05-03T16:44:16.528Z,100350.30
2019-05-03T16:47:21.247Z,100357.61
2019-05-03T16:50:25.632Z,100365.11
2019-05-03T16:53:30.062Z,100359.20
2019-05-03T16:56:35.249Z,100359.86
2019-05-03T16:59:39.766Z,100357.09
2019-05-03T17:02:44.368Z,100347.19
2019-05-03T17:06:08.042Z,100336.91
2019-05-03T17:09:37.535Z,100325.81
2019-05-03T17:12:41.822Z,100333.78
2019-05-03T17:15:46.162Z,100330.73
2019-05-03T17:18:51.407Z,100330.86
2019-05-03T17:21:55.733Z,100332.23
2019-05-03T17:25:00.012Z,100333.59
2019-05-03T17:28:05.011Z,100327.80
2019-05-03T17:31:10.119Z,100329.09
2019-05-03T17:34:14.606Z,100319.88
2019-05-03T17:37:19.227Z,100321.17
2019-05-03T17:40:45.877Z,100317.68
2019-05-03T17:43:54.597Z,100310.14
2019-05-03T17:46:59.672Z,100308.45
2019-05-03T17:50:05.343Z,100310.08
2019-05-03T17:53:23.127Z,100312.41
2019-05-03T17:56:46.560Z,100318.84
2019-05-03T17:59:55.799Z,100308.28
2019-05-03T18:03:00.128Z,100312.23
2019-05-03T18:06:12.057Z,100305.73
2019-05-03T18:09:22.757Z,100306.72
2019-05-03T18:12:27.307Z,100318.94
2019-05-03T18:15:31.684Z,100326.22
2019-05-03T18:18:39.534Z,100342.77
2019-05-03T18:21:44.106Z,100338.45
2019-05-03T18:24:48.788Z,100327.33
2019-05-03T18:27:59.762Z,100338.91
2019-05-03T18:31:05.399Z,100328.61
2019-05-03T18:34:18.943Z,100338.31
2019-05-03T18:37:35.031Z,100325.14
2019-05-03T18:40:39.593Z,100332.97
2019-05-03T18:44:01.602Z,100323.75
2019-05-03T18:47:15.617Z,100308.95
2019-05-03T18:50:24.653Z,100320.00
2019-05-03T18:53:29.284Z,100318.75
2019-05-03T18:56:37.164Z,100324.41
2019-05-03T18:59:41.991Z,100317.63
2019-05-03T19:02:46.691Z,100319.97
2019-05-03T19:05:54.750Z,100315.55
2019-05-03T19:09:34.722Z,100317.12
2019-05-03T19:12:47.416Z,100322.44
2019-05-03T19:15:52.592Z,100318.92
2019-05-03T19:18:57.360Z,100313.66
2019-05-03T19:22:05.112Z,100315.36
2019-05-03T19:25:09.808Z,100311.41
2019-05-03T19:28:14.333Z,100314.61
2019-05-03T19:31:25.168Z,100308.98
2019-05-03T19:34:30.042Z,100314.73
2019-05-03T19:37:34.862Z,100313.82
2019-05-03T19:40:42.478Z,100312.55
2019-05-03T19:43:47.203Z,100299.41
2019-05-03T19:46:52.145Z,100302.94
2019-05-03T19:49:56.658Z,100300.38
2019-05-03T19:53:17.406Z,100301.67
2019-05-03T19:56:25.749Z,100297.33
2019-05-03T19:59:58.107Z,100288.47
2019-05-03T20:03:08.310Z,100286.39
2019-05-03T20:06:46.581Z,100290.34
2019-05-03T20:09:51.681Z,100285.11
2019-05-03T20:12:56.514Z,100280.73
2019-05-03T20:16:01.662Z,100285.08
2019-05-03T20:19:17.924Z,100281.08
2019-05-03T20:22:15.022Z,100280.20
2019-05-03T20:25:44.697Z,100279.38
2019-05-03T20:29:29.394Z,100275.00
2019-05-03T20:36:54.728Z,100280.27
2019-05-03T20:40:11.107Z,100275.84
2019-05-03T20:43:46.475Z,100276.70
2019-05-03T20:46:59.828Z,100279.25
2019-05-03T20:50:15.501Z,100277.02
2019-05-03T20:53:35.191Z,100277.35
2019-05-03T20:56:41.966Z,100282.60
2019-05-03T21:00:17.754Z,100283.11
2019-05-03T21:03:25.152Z,100286.86
2019-05-03T21:07:24.961Z,100289.77
2019-05-03T21:10:55.040Z,100278.79
2019-05-03T21:14:02.285Z,100277.70
2019-05-03T21:17:19.997Z,100274.81
2019-05-03T21:20:47.912Z,100265.20
2019-05-03T21:23:56.064Z,100263.95
2019-05-03T21:27:19.297Z,100271.00
2019-05-03T21:30:42.821Z,100267.84
2019-05-03T21:34:07.102Z,100267.80
2019-05-03T21:40:41.218Z,100260.91
2019-05-03T21:43:45.862Z,100264.75
2019-05-03T21:46:50.693Z,100255.58
2019-05-03T21:49:55.748Z,100271.14
2019-05-03T21:53:06.613Z,100290.45
2019-05-03T21:56:10.975Z,100293.54
2019-05-03T21:59:16.084Z,100298.20
2019-05-03T22:02:24.561Z,100317.45
2019-05-03T22:05:29.137Z,100294.05
2019-05-03T22:08:35.058Z,100281.47
2019-05-03T22:11:40.848Z,100285.95
2019-05-03T22:14:51.621Z,100286.50
2019-05-03T22:18:28.938Z,100270.80
2019-05-03T22:21:49.808Z,100282.70
2019-05-03T22:25:00.412Z,100277.50
2019-05-03T22:28:07.122Z,100277.97
2019-05-03T22:31:11.419Z,100279.75
2019-05-03T22:34:16.420Z,100278.02
2019-05-03T22:37:27.092Z,100271.87
2019-05-03T22:40:35.480Z,100273.63
2019-05-03T22:43:40.039Z,100257.37
2019-05-03T22:46:44.691Z,100256.50
2019-05-03T22:49:49.438Z,100254.70
2019-05-03T22:53:01.036Z,100257.67
2019-05-03T22:56:06.010Z,100253.74
2019-05-03T22:59:11.002Z,100256.31
2019-05-03T23:02:42.600Z,100254.45
2019-05-03T23:05:47.456Z,100251.35
2019-05-03T23:08:59.731Z,100243.48
2019-05-03T23:12:05.540Z,100245.23
2019-05-03T23:15:12.371Z,100233.81
2019-05-03T23:18:16.966Z,100227.33
2019-05-03T23:21:42.061Z,100217.25
2019-05-03T23:24:47.076Z,100224.41
2019-05-03T23:27:51.698Z,100216.94
2019-05-03T23:30:56.381Z,100209.51
2019-05-03T23:34:07.238Z,100214.28
2019-05-03T23:37:11.997Z,100219.13
2019-05-03T23:40:19.878Z,100222.69
2019-05-03T23:43:25.726Z,100209.02
2019-05-03T23:46:37.457Z,100213.85
2019-05-03T23:49:49.149Z,100211.22
2019-05-03T23:52:56.730Z,100220.31
2019-05-03T23:56:06.861Z,100225.89
2019-05-03T23:59:20.588Z,100210.48
